Time;durP1;ratioP1;P1;durP2;ratioP2;P2;SDS_P1;SDS_P2;PMS_P1;PMS_P2;Temp;Humidity;BMP_temperature;BMP_pressure;BME280_temperature;BME280_humidity;BME280_pressure;Samples;Min_cycle;Max_cycle;Signal;HPM_P1;HPM_P2
2022/06/26 00:01:20;;;;;;;10.50;4.37;;;;;;;;;;5050526;28;20464;-66
2022/06/26 00:03:46;;;;;;;5.90;4.03;;;;;;;;;;5048858;28;20483;-67
2022/06/26 00:06:12;;;;;;;5.13;4.23;;;;;;;;;;5049374;28;20402;-66
2022/06/26 00:08:39;;;;;;;5.27;4.43;;;;;;;;;;5048191;28;20703;-67
2022/06/26 00:11:05;;;;;;;5.20;4.40;;;;;;;;;;5048376;28;20405;-67
2022/06/26 00:13:31;;;;;;;4.67;4.27;;;;;;;;;;5049037;28;20479;-66
2022/06/26 00:15:57;;;;;;;5.10;4.20;;;;;;;;;;5049305;28;20420;-67
2022/06/26 00:18:23;;;;;;;8.97;4.83;;;;;;;;;;5036535;28;20493;-66
2022/06/26 00:20:50;;;;;;;5.53;4.43;;;;;;;;;;5029201;28;20407;-67
2022/06/26 00:23:16;;;;;;;4.93;3.80;;;;;;;;;;5028950;28;20651;-66
2022/06/26 00:25:42;;;;;;;12.10;4.90;;;;;;;;;;5028533;28;20417;-66
2022/06/26 00:28:08;;;;;;;16.70;4.53;;;;;;;;;;5028135;28;20410;-67
2022/06/26 00:30:34;;;;;;;9.73;4.73;;;;;;;;;;5028746;28;20403;-67
2022/06/26 00:33:00;;;;;;;5.17;4.10;;;;;;;;;;5028270;28;20434;-67
2022/06/26 00:35:26;;;;;;;6.27;4.40;;;;;;;;;;5028924;28;20764;-67
2022/06/26 00:37:52;;;;;;;8.43;5.40;;;;;;;;;;5028542;28;20414;-66
2022/06/26 00:40:18;;;;;;;5.83;4.93;;;;;;;;;;5027284;28;20988;-66
2022/06/26 00:42:44;;;;;;;5.90;4.00;;;;;;;;;;5028951;28;20488;-66
2022/06/26 00:45:11;;;;;;;6.90;3.97;;;;;;;;;;5028871;28;20993;-66
2022/06/26 00:47:37;;;;;;;4.07;3.67;;;;;;;;;;5028602;28;20816;-66
2022/06/26 00:50:05;;;;;;;7.77;4.30;;;;;;;;;;5027896;28;20521;-65
2022/06/26 00:52:32;;;;;;;9.10;3.83;;;;;;;;;;5028409;28;20788;-66
2022/06/26 00:55:01;;;;;;;4.20;3.80;;;;;;;;;;5022895;28;20438;-66
2022/06/26 00:57:27;;;;;;;5.13;3.50;;;;;;;;;;5025636;28;20524;-67
2022/06/26 00:59:53;;;;;;;3.97;3.67;;;;;;;;;;5040396;28;20421;-67
2022/06/26 01:02:19;;;;;;;10.37;4.00;;;;;;;;;;5051500;28;20402;-66
2022/06/26 01:04:45;;;;;;;13.17;5.10;;;;;;;;;;5051545;28;20400;-66
2022/06/26 01:07:11;;;;;;;8.63;4.40;;;;;;;;;;5051597;28;20405;-67
2022/06/26 01:09:37;;;;;;;7.70;4.30;;;;;;;;;;5051478;28;20464;-66
2022/06/26 01:12:03;;;;;;;4.40;4.00;;;;;;;;;;5051825;28;20483;-66
2022/06/26 01:14:30;;;;;;;5.03;4.23;;;;;;;;;;5052130;28;20421;-67
2022/06/26 01:16:56;;;;;;;5.77;3.90;;;;;;;;;;5051854;28;20412;-66
2022/06/26 01:19:22;;;;;;;9.60;4.10;;;;;;;;;;5031272;28;20406;-66
2022/06/26 01:21:48;;;;;;;5.73;4.17;;;;;;;;;;5031981;28;20403;-67
2022/06/26 01:24:15;;;;;;;6.70;4.00;;;;;;;;;;5031735;28;20804;-66
2022/06/26 01:26:41;;;;;;;7.03;4.70;;;;;;;;;;5031733;28;20398;-66
2022/06/26 01:29:08;;;;;;;8.10;5.50;;;;;;;;;;5030624;28;20482;-67
2022/06/26 01:31:34;;;;;;;6.33;4.00;;;;;;;;;;5031978;28;20406;-66
2022/06/26 01:34:04;;;;;;;7.77;4.77;;;;;;;;;;5031197;28;20843;-66
2022/06/26 01:36:30;;;;;;;6.13;4.07;;;;;;;;;;5013632;28;20414;-66
2022/06/26 01:38:57;;;;;;;4.83;4.33;;;;;;;;;;5030136;28;20817;-65
2022/06/26 01:41:23;;;;;;;4.83;4.27;;;;;;;;;;5031446;28;20469;-67
2022/06/26 01:43:49;;;;;;;5.20;3.93;;;;;;;;;;5031450;28;20458;-67
2022/06/26 01:46:15;;;;;;;7.77;3.87;;;;;;;;;;5031345;28;20402;-67
2022/06/26 01:48:42;;;;;;;5.57;3.53;;;;;;;;;;5030404;28;20786;-66
2022/06/26 01:51:08;;;;;;;8.30;3.97;;;;;;;;;;5031114;28;20425;-66
2022/06/26 01:53:35;;;;;;;7.20;4.30;;;;;;;;;;5030958;28;20962;-67
2022/06/26 01:56:01;;;;;;;5.33;4.57;;;;;;;;;;5031069;28;20407;-67
2022/06/26 01:58:27;;;;;;;4.00;3.37;;;;;;;;;;5030994;28;20430;-66
2022/06/26 02:00:54;;;;;;;3.53;3.23;;;;;;;;;;5051093;28;20405;-66
2022/06/26 02:03:21;;;;;;;3.77;3.40;;;;;;;;;;5050431;28;20559;-66
2022/06/26 02:05:47;;;;;;;9.17;3.80;;;;;;;;;;5051237;28;20750;-66
2022/06/26 02:08:13;;;;;;;5.10;3.03;;;;;;;;;;5049758;28;20453;-66
2022/06/26 02:13:36;;;;;;;3.63;3.07;;;;;;;;;;5050721;28;20452;-66
2022/06/26 02:16:06;;;;;;;6.57;3.23;;;;;;;;;;5050829;28;20721;-66
2022/06/26 02:18:33;;;;;;;5.87;3.40;;;;;;;;;;5035154;28;20494;-67
2022/06/26 02:20:59;;;;;;;4.13;3.60;;;;;;;;;;5024834;28;20434;-66
2022/06/26 02:23:25;;;;;;;5.60;4.47;;;;;;;;;;5030241;28;20909;-67
2022/06/26 02:25:52;;;;;;;13.80;4.60;;;;;;;;;;5030449;28;20394;-66
2022/06/26 02:28:18;;;;;;;3.93;3.57;;;;;;;;;;5029552;28;20403;-67
2022/06/26 02:30:46;;;;;;;4.73;3.33;;;;;;;;;;5030767;28;20418;-67
2022/06/26 02:33:12;;;;;;;5.40;3.20;;;;;;;;;;5030096;28;20939;-65
2022/06/26 02:35:38;;;;;;;5.27;3.70;;;;;;;;;;5030559;28;20415;-67
2022/06/26 02:38:04;;;;;;;4.80;3.53;;;;;;;;;;5030094;28;20410;-67
2022/06/26 02:40:31;;;;;;;5.37;2.90;;;;;;;;;;5029343;28;20417;-66
2022/06/26 02:42:57;;;;;;;11.07;4.27;;;;;;;;;;5030286;28;20833;-66
2022/06/26 02:45:23;;;;;;;11.73;3.73;;;;;;;;;;5030515;28;20411;-67
2022/06/26 02:47:50;;;;;;;3.90;2.77;;;;;;;;;;5029810;28;20823;-67
2022/06/26 02:50:16;;;;;;;8.10;3.37;;;;;;;;;;5029795;28;20410;-66
2022/06/26 02:52:43;;;;;;;7.60;3.43;;;;;;;;;;5030657;28;20445;-67
2022/06/26 02:55:09;;;;;;;8.13;3.63;;;;;;;;;;5029586;28;20416;-67
2022/06/26 02:57:35;;;;;;;4.83;3.00;;;;;;;;;;5029139;28;20406;-66
2022/06/26 03:00:01;;;;;;;8.67;3.77;;;;;;;;;;5043708;28;20445;-66
2022/06/26 03:02:28;;;;;;;10.23;3.30;;;;;;;;;;5049916;28;20425;-66
2022/06/26 03:04:54;;;;;;;14.90;4.60;;;;;;;;;;5049656;28;20480;-66
2022/06/26 03:07:20;;;;;;;4.73;3.40;;;;;;;;;;5049494;28;20493;-67
2022/06/26 03:09:47;;;;;;;4.70;4.30;;;;;;;;;;5049195;28;20412;-67
2022/06/26 03:12:13;;;;;;;14.30;4.00;;;;;;;;;;5049240;28;20404;-67
2022/06/26 03:14:39;;;;;;;6.47;3.90;;;;;;;;;;5050122;28;20835;-68
2022/06/26 03:17:05;;;;;;;8.07;3.60;;;;;;;;;;5048801;28;20867;-67
2022/06/26 03:19:31;;;;;;;4.40;3.37;;;;;;;;;;5029524;28;20556;-68
2022/06/26 03:21:57;;;;;;;3.77;3.47;;;;;;;;;;5031110;28;20465;-66
2022/06/26 03:24:23;;;;;;;3.80;3.40;;;;;;;;;;5030041;28;20992;-65
2022/06/26 03:26:50;;;;;;;7.80;3.97;;;;;;;;;;5031645;28;20786;-64
2022/06/26 03:29:16;;;;;;;8.10;3.90;;;;;;;;;;5029799;28;20500;-66
2022/06/26 03:31:42;;;;;;;18.20;5.30;;;;;;;;;;5030744;28;20409;-66
2022/06/26 03:34:08;;;;;;;17.83;5.50;;;;;;;;;;5030553;28;20497;-66
2022/06/26 03:36:34;;;;;;;7.40;4.17;;;;;;;;;;5030987;28;20406;-66
2022/06/26 03:39:01;;;;;;;9.30;4.77;;;;;;;;;;5029675;28;20449;-65
2022/06/26 03:41:27;;;;;;;6.43;4.07;;;;;;;;;;5029514;28;20520;-65
2022/06/26 03:43:53;;;;;;;4.23;3.70;;;;;;;;;;5029484;28;20457;-66
2022/06/26 03:46:20;;;;;;;10.93;4.00;;;;;;;;;;5029582;28;20410;-65
2022/06/26 03:48:46;;;;;;;5.13;3.33;;;;;;;;;;5028437;28;20493;-66
2022/06/26 03:51:12;;;;;;;4.03;3.53;;;;;;;;;;5030026;28;20410;-66
2022/06/26 03:53:38;;;;;;;6.80;3.93;;;;;;;;;;5029246;28;20490;-66
2022/06/26 03:56:05;;;;;;;5.30;4.37;;;;;;;;;;5023265;28;20938;-65
2022/06/26 03:58:31;;;;;;;6.60;4.77;;;;;;;;;;5010583;28;20407;-65
2022/06/26 04:00:57;;;;;;;9.93;4.00;;;;;;;;;;5029317;28;20403;-65
2022/06/26 04:03:23;;;;;;;12.50;4.83;;;;;;;;;;5028913;28;20473;-66
2022/06/26 04:05:50;;;;;;;13.13;4.20;;;;;;;;;;5029262;28;20717;-66
2022/06/26 04:08:16;;;;;;;20.13;6.23;;;;;;;;;;5028077;28;20467;-66
2022/06/26 04:10:42;;;;;;;10.07;4.33;;;;;;;;;;5028571;28;20415;-66
2022/06/26 04:13:09;;;;;;;18.03;4.90;;;;;;;;;;5028826;28;20560;-66
2022/06/26 04:15:36;;;;;;;8.53;4.57;;;;;;;;;;5029017;28;20429;-66
2022/06/26 04:18:02;;;;;;;17.73;5.40;;;;;;;;;;5019774;28;20419;-65
2022/06/26 04:20:28;;;;;;;6.30;4.33;;;;;;;;;;5008732;28;20407;-65
2022/06/26 04:22:55;;;;;;;3.50;3.10;;;;;;;;;;5009507;28;20470;-66
2022/06/26 04:25:22;;;;;;;4.70;3.20;;;;;;;;;;5008530;28;20960;-66
2022/06/26 04:27:48;;;;;;;4.37;3.97;;;;;;;;;;5009617;28;20403;-66
2022/06/26 04:30:15;;;;;;;12.93;4.40;;;;;;;;;;5009139;28;20410;-66
2022/06/26 04:32:41;;;;;;;12.33;4.63;;;;;;;;;;5009776;28;20435;-66
2022/06/26 04:35:07;;;;;;;28.20;5.90;;;;;;;;;;5009831;28;20502;-65
2022/06/26 04:37:33;;;;;;;28.30;5.20;;;;;;;;;;5012837;28;20411;-66
2022/06/26 04:40:00;;;;;;;15.07;4.47;;;;;;;;;;5012727;28;20418;-66
2022/06/26 04:42:26;;;;;;;17.57;4.70;;;;;;;;;;5012714;28;20908;-66
2022/06/26 04:44:52;;;;;;;13.83;4.53;;;;;;;;;;5013173;28;20419;-66
2022/06/26 04:47:18;;;;;;;15.07;4.37;;;;;;;;;;5012951;28;20407;-66
2022/06/26 04:49:44;;;;;;;12.83;4.10;;;;;;;;;;5012011;28;20403;-65
2022/06/26 04:52:10;;;;;;;9.30;4.00;;;;;;;;;;5028157;28;20421;-66
2022/06/26 04:54:36;;;;;;;5.73;4.00;;;;;;;;;;5031538;28;20728;-67
2022/06/26 04:57:02;;;;;;;4.83;4.03;;;;;;;;;;5031529;28;20418;-66
2022/06/26 04:59:28;;;;;;;11.70;3.87;;;;;;;;;;5041179;28;20409;-66
2022/06/26 05:01:54;;;;;;;37.43;6.23;;;;;;;;;;5052243;28;20405;-66
2022/06/26 05:04:20;;;;;;;7.77;4.40;;;;;;;;;;5051482;28;20965;-66
2022/06/26 05:06:46;;;;;;;5.60;3.80;;;;;;;;;;5052111;28;20397;-66
2022/06/26 05:09:12;;;;;;;7.10;3.77;;;;;;;;;;5050788;28;20424;-66
2022/06/26 05:11:40;;;;;;;5.40;3.97;;;;;;;;;;5052172;28;20463;-66
2022/06/26 05:14:06;;;;;;;31.20;6.17;;;;;;;;;;5051671;28;20622;-66
2022/06/26 05:16:32;;;;;;;11.33;4.87;;;;;;;;;;5052472;28;20409;-66
2022/06/26 05:18:58;;;;;;;3.80;3.27;;;;;;;;;;5029436;28;20835;-66
2022/06/26 05:21:24;;;;;;;5.40;4.17;;;;;;;;;;5029429;28;20410;-67
2022/06/26 05:23:51;;;;;;;4.10;3.70;;;;;;;;;;5031538;28;20619;-66
2022/06/26 05:26:17;;;;;;;4.43;3.73;;;;;;;;;;5031716;28;20407;-67
2022/06/26 05:28:43;;;;;;;6.17;3.93;;;;;;;;;;5030811;28;20402;-65
2022/06/26 05:31:09;;;;;;;6.20;3.47;;;;;;;;;;5031997;28;20464;-67
2022/06/26 05:33:35;;;;;;;19.90;5.80;;;;;;;;;;5031053;28;20780;-66
2022/06/26 05:36:01;;;;;;;8.40;3.50;;;;;;;;;;5031362;28;20430;-67
2022/06/26 05:38:27;;;;;;;20.93;4.67;;;;;;;;;;5030325;28;20410;-66
2022/06/26 05:40:53;;;;;;;8.17;3.67;;;;;;;;;;5030986;28;20403;-67
2022/06/26 05:43:19;;;;;;;12.90;4.60;;;;;;;;;;5031317;28;20501;-66
2022/06/26 05:45:45;;;;;;;3.30;2.80;;;;;;;;;;5031127;28;20435;-67
2022/06/26 05:48:11;;;;;;;14.57;4.50;;;;;;;;;;5029709;28;20994;-66
2022/06/26 05:50:37;;;;;;;19.13;4.40;;;;;;;;;;5031030;28;20406;-66
2022/06/26 05:53:03;;;;;;;13.40;4.07;;;;;;;;;;5031205;28;20499;-67
2022/06/26 05:55:30;;;;;;;8.13;3.50;;;;;;;;;;5010188;28;20411;-66
2022/06/26 05:57:56;;;;;;;4.67;3.10;;;;;;;;;;5011053;28;20417;-67
2022/06/26 06:00:22;;;;;;;16.27;4.27;;;;;;;;;;5044475;28;20444;-67
2022/06/26 06:02:48;;;;;;;24.73;4.93;;;;;;;;;;5050832;28;20473;-66
2022/06/26 06:05:14;;;;;;;16.67;4.20;;;;;;;;;;5050369;28;20402;-66
2022/06/26 06:07:40;;;;;;;13.80;4.30;;;;;;;;;;5050711;28;20404;-67
2022/06/26 06:10:07;;;;;;;16.17;4.70;;;;;;;;;;5050104;28;20406;-67
2022/06/26 06:12:33;;;;;;;9.83;4.30;;;;;;;;;;5050169;28;20956;-66
2022/06/26 06:14:59;;;;;;;5.10;3.50;;;;;;;;;;5050668;28;20443;-67
2022/06/26 06:17:37;;;;;;;13.93;3.83;;;;;;;;;;5047341;28;20761;-67
2022/06/26 06:20:20;;;;;;;15.87;4.23;;;;;;;;;;5029621;28;20735;-66
2022/06/26 06:22:47;;;;;;;6.57;3.87;;;;;;;;;;5030033;28;20464;-65
2022/06/26 06:25:13;;;;;;;3.07;2.60;;;;;;;;;;5030049;28;20418;-67
2022/06/26 06:27:39;;;;;;;13.50;4.13;;;;;;;;;;5029901;28;20456;-67
2022/06/26 06:30:06;;;;;;;13.07;4.00;;;;;;;;;;5030259;28;20441;-67
2022/06/26 06:32:32;;;;;;;15.70;3.70;;;;;;;;;;5030398;28;20429;-66
2022/06/26 06:34:58;;;;;;;16.67;4.37;;;;;;;;;;5029345;28;20405;-66
2022/06/26 06:37:24;;;;;;;4.27;3.20;;;;;;;;;;5029796;28;20414;-66
2022/06/26 06:39:50;;;;;;;6.57;3.60;;;;;;;;;;5029134;28;20456;-67
2022/06/26 06:42:16;;;;;;;6.70;3.33;;;;;;;;;;5029810;28;20587;-67
2022/06/26 06:44:42;;;;;;;11.10;4.10;;;;;;;;;;5029076;28;20992;-66
2022/06/26 06:47:09;;;;;;;5.03;3.00;;;;;;;;;;5029379;28;20449;-65
2022/06/26 06:49:35;;;;;;;15.93;3.50;;;;;;;;;;5029006;28;20414;-66
2022/06/26 06:52:01;;;;;;;9.60;3.50;;;;;;;;;;5029940;28;20422;-66
2022/06/26 06:54:28;;;;;;;4.57;2.80;;;;;;;;;;5028226;28;20426;-66
2022/06/26 06:56:54;;;;;;;5.00;3.10;;;;;;;;;;5004788;28;20407;-66
2022/06/26 06:59:20;;;;;;;5.03;2.83;;;;;;;;;;5036812;28;20445;-67
2022/06/26 07:01:46;;;;;;;6.20;2.90;;;;;;;;;;5050189;28;20417;-66
2022/06/26 07:04:12;;;;;;;3.67;3.27;;;;;;;;;;5049804;28;20457;-67
2022/06/26 07:06:39;;;;;;;2.73;2.50;;;;;;;;;;5050525;28;20409;-67
2022/06/26 07:09:05;;;;;;;5.80;3.80;;;;;;;;;;5048245;28;20427;-68
2022/06/26 07:11:31;;;;;;;3.43;3.13;;;;;;;;;;5049571;28;20409;-67
2022/06/26 07:13:58;;;;;;;3.87;3.57;;;;;;;;;;5049271;28;20523;-66
2022/06/26 07:16:24;;;;;;;7.30;3.43;;;;;;;;;;5049769;28;20822;-66
2022/06/26 07:18:50;;;;;;;5.80;3.20;;;;;;;;;;5033040;28;20563;-66
2022/06/26 07:21:16;;;;;;;3.90;3.50;;;;;;;;;;5029597;28;20403;-66
2022/06/26 07:23:42;;;;;;;3.17;2.87;;;;;;;;;;5028493;28;20458;-66
2022/06/26 07:26:08;;;;;;;4.53;2.50;;;;;;;;;;5029404;28;20403;-67
2022/06/26 07:28:34;;;;;;;4.53;2.77;;;;;;;;;;5028374;28;20917;-67
2022/06/26 07:31:00;;;;;;;8.17;3.20;;;;;;;;;;5029012;28;20421;-67
2022/06/26 07:36:25;;;;;;;3.07;2.57;;;;;;;;;;4985277;28;20403;-66
2022/06/26 07:38:51;;;;;;;4.00;2.40;;;;;;;;;;5028020;28;20911;-67
2022/06/26 07:41:17;;;;;;;2.57;2.37;;;;;;;;;;5028891;28;20436;-67
2022/06/26 07:43:43;;;;;;;28.27;4.57;;;;;;;;;;5028881;28;20458;-67
2022/06/26 07:46:09;;;;;;;5.90;2.90;;;;;;;;;;5029130;28;20417;-67
2022/06/26 07:48:35;;;;;;;6.93;3.07;;;;;;;;;;5028005;28;20807;-67
2022/06/26 07:51:02;;;;;;;4.63;3.00;;;;;;;;;;5029095;28;20402;-67
2022/06/26 07:53:28;;;;;;;7.17;2.80;;;;;;;;;;5027929;28;20494;-66
2022/06/26 07:55:54;;;;;;;4.83;2.80;;;;;;;;;;5015445;28;20934;-67
2022/06/26 07:58:20;;;;;;;9.43;3.27;;;;;;;;;;5008899;28;20407;-67
2022/06/26 08:00:46;;;;;;;10.30;3.50;;;;;;;;;;5049078;28;21218;-67
2022/06/26 08:03:14;;;;;;;4.60;2.93;;;;;;;;;;5048978;28;20468;-67
2022/06/26 08:05:40;;;;;;;3.00;2.70;;;;;;;;;;5049217;28;20402;-65
2022/06/26 08:08:07;;;;;;;6.13;2.83;;;;;;;;;;5050119;28;20402;-67
2022/06/26 08:10:33;;;;;;;3.17;2.70;;;;;;;;;;5049716;28;20402;-66
2022/06/26 08:13:00;;;;;;;2.70;2.50;;;;;;;;;;5049517;28;20444;-66
2022/06/26 08:15:26;;;;;;;5.63;2.57;;;;;;;;;;5048795;28;20402;-66
2022/06/26 08:17:52;;;;;;;3.07;2.77;;;;;;;;;;5041152;28;20410;-66
2022/06/26 08:20:18;;;;;;;4.20;2.67;;;;;;;;;;5028235;28;20406;-67
2022/06/26 08:22:44;;;;;;;3.10;2.80;;;;;;;;;;5028565;28;20468;-66
2022/06/26 08:25:10;;;;;;;3.73;3.20;;;;;;;;;;5028470;28;20402;-66
2022/06/26 08:27:36;;;;;;;4.70;2.40;;;;;;;;;;5028162;28;20601;-66
2022/06/26 08:30:03;;;;;;;2.60;2.40;;;;;;;;;;5028636;28;20401;-66
2022/06/26 08:32:29;;;;;;;4.93;2.70;;;;;;;;;;5029169;28;20438;-67
2022/06/26 08:34:55;;;;;;;4.17;3.07;;;;;;;;;;5028198;28;20464;-67
2022/06/26 08:37:21;;;;;;;5.87;3.10;;;;;;;;;;5027977;28;20502;-67
2022/06/26 08:39:47;;;;;;;3.10;2.73;;;;;;;;;;5027907;28;20406;-67
2022/06/26 08:42:14;;;;;;;4.00;2.60;;;;;;;;;;5028330;28;20456;-66
2022/06/26 08:44:44;;;;;;;3.50;2.50;;;;;;;;;;5028425;28;20454;-67
2022/06/26 08:47:11;;;;;;;4.70;2.67;;;;;;;;;;5028237;28;20496;-67
2022/06/26 08:49:37;;;;;;;15.97;3.27;;;;;;;;;;5027437;28;21235;-67
2022/06/26 08:52:04;;;;;;;8.73;2.50;;;;;;;;;;5027960;28;20765;-67
2022/06/26 08:54:30;;;;;;;2.60;1.93;;;;;;;;;;5027684;28;20472;-67
2022/06/26 08:56:57;;;;;;;3.60;2.47;;;;;;;;;;5027852;28;20887;-67
2022/06/26 08:59:23;;;;;;;6.37;2.60;;;;;;;;;;5036593;28;20448;-66
2022/06/26 09:01:49;;;;;;;2.50;2.03;;;;;;;;;;5048369;28;20543;-67
2022/06/26 09:04:15;;;;;;;3.00;2.00;;;;;;;;;;5047377;28;20444;-66
2022/06/26 09:06:42;;;;;;;3.00;2.40;;;;;;;;;;5048171;28;20393;-66
2022/06/26 09:09:16;;;;;;;2.20;2.00;;;;;;;;;;5046891;28;20824;-66
2022/06/26 09:11:43;;;;;;;6.17;2.17;;;;;;;;;;5048053;28;20409;-67
2022/06/26 09:14:10;;;;;;;3.17;2.10;;;;;;;;;;5047986;28;20595;-67
2022/06/26 09:16:38;;;;;;;2.70;2.30;;;;;;;;;;5049139;28;20729;-67
2022/06/26 09:19:12;;;;;;;2.50;2.27;;;;;;;;;;5023873;28;20422;-67
2022/06/26 09:21:39;;;;;;;4.27;2.37;;;;;;;;;;5027999;28;20405;-67
2022/06/26 09:24:09;;;;;;;2.73;2.03;;;;;;;;;;5030948;28;20639;-67
2022/06/26 09:26:35;;;;;;;2.93;2.10;;;;;;;;;;5031481;28;20402;-67
2022/06/26 09:29:11;;;;;;;4.53;2.43;;;;;;;;;;5030539;28;20402;-67
2022/06/26 09:31:38;;;;;;;3.53;2.00;;;;;;;;;;5031511;28;20406;-66
2022/06/26 09:34:05;;;;;;;1.60;1.47;;;;;;;;;;5030576;28;20422;-67
2022/06/26 09:36:31;;;;;;;1.90;1.60;;;;;;;;;;5031196;28;20410;-67
2022/06/26 09:38:57;;;;;;;4.27;1.97;;;;;;;;;;5029978;28;20410;-67
2022/06/26 09:41:30;;;;;;;2.47;2.00;;;;;;;;;;5030885;28;20416;-66
2022/06/26 09:43:57;;;;;;;3.60;2.13;;;;;;;;;;5030518;28;20549;-66
2022/06/26 09:46:28;;;;;;;3.20;2.30;;;;;;;;;;5031321;28;20832;-67
2022/06/26 09:48:57;;;;;;;4.10;2.40;;;26.10;99.90;;;;;;5011744;28;20925;-66
2022/06/26 09:51:23;;;;;;;2.73;1.80;;;26.20;99.90;;;;;;5030891;28;20410;-66
2022/06/26 09:53:49;;;;;;;2.20;1.97;;;26.30;99.90;;;;;;5030706;28;20441;-67
2022/06/26 09:56:15;;;;;;;2.73;2.10;;;26.70;99.90;;;;;;5030430;28;20417;-66
2022/06/26 09:58:41;;;;;;;2.00;1.77;;;;;;;;;;5033725;28;20417;-66
2022/06/26 10:06:36;;;;;;;2.60;2.17;;;26.60;99.90;;;;;;5050780;28;20451;-68
2022/06/26 10:09:05;;;;;;;2.60;2.40;;;26.60;99.90;;;;;;5049135;28;20409;-66
2022/06/26 10:11:35;;;;;;;2.30;2.10;;;26.70;99.90;;;;;;5050806;28;20393;-67
2022/06/26 10:14:22;;;;;;;4.13;2.47;;;27.20;99.90;;;;;;5050456;28;20521;-66
2022/06/26 10:17:20;;;;;;;2.13;1.93;;;27.30;99.90;;;;;;5050538;28;20864;-66
2022/06/26 10:19:51;;;;;;;2.37;1.93;;;;;;;;;;5010015;28;20423;-66
2022/06/26 10:22:17;;;;;;;2.77;2.10;;;;;;;;;;5011021;28;20449;-68
2022/06/26 10:24:57;;;;;;;3.57;2.60;;;;;;;;;;5010483;28;20450;-68
2022/06/26 10:27:31;;;;;;;4.30;2.70;;;;;;;;;;5010427;28;20848;-67
2022/06/26 10:30:09;;;;;;;5.53;1.80;;;;;;;;;;5010750;28;20401;-68
2022/06/26 10:32:35;;;;;;;1.90;1.60;;;;;;;;;;5010633;28;20942;-68
2022/06/26 10:35:04;;;;;;;2.10;1.60;;;;;;;;;;5010083;28;20763;-66
2022/06/26 10:37:40;;;;;;;2.90;1.87;;;;;;;;;;5010698;28;20399;-67
2022/06/26 10:43:15;;;;;;;2.27;1.30;;;27.20;99.20;;;;;;5013307;28;20536;-67
2022/06/26 10:45:43;;;;;;;6.33;1.90;;;;;;;;;;5015108;28;20418;-68
2022/06/26 10:48:19;;;;;;;2.03;1.57;;;;;;;;;;5014579;28;20442;-66
2022/06/26 10:50:55;;;;;;;2.03;1.60;;;;;;;;;;5015226;28;20462;-67
2022/06/26 10:53:26;;;;;;;2.30;2.00;;;;;;;;;;5029387;28;20432;-67
2022/06/26 10:55:58;;;;;;;1.83;1.63;;;27.00;88.80;;;;;;5022645;28;20440;-67
2022/06/26 10:58:24;;;;;;;8.43;2.60;;;27.00;96.20;;;;;;5033374;28;20406;-66
2022/06/26 11:00:52;;;;;;;1.87;1.50;;;27.10;96.00;;;;;;5051957;28;20642;-66
2022/06/26 11:03:19;;;;;;;3.73;2.00;;;27.40;96.20;;;;;;5051412;28;20547;-67
2022/06/26 11:05:54;;;;;;;1.57;1.47;;;27.40;94.50;;;;;;5051281;28;20467;-66
2022/06/26 11:08:30;;;;;;;3.10;1.80;;;27.50;93.90;;;;;;5050660;28;20927;-66
2022/06/26 11:11:00;;;;;;;4.73;1.80;;;;;;;;;;5048800;28;20750;-67
2022/06/26 11:13:26;;;;;;;2.17;1.73;;;27.30;79.20;;;;;;5049158;28;20452;-67
2022/06/26 11:15:52;;;;;;;1.70;1.60;;;27.40;93.20;;;;;;5049367;28;20427;-66
2022/06/26 11:18:18;;;;;;;6.13;1.77;;;27.50;93.30;;;;;;5037438;28;20204;-68
2022/06/26 11:20:49;;;;;;;2.07;1.80;;;27.60;93.80;;;;;;5029499;28;20254;-67
2022/06/26 11:23:26;;;;;;;4.33;2.13;;;27.60;92.90;;;;;;5029431;28;20573;-68
2022/06/26 11:25:58;;;;;;;3.63;2.20;;;27.50;92.70;;;;;;5028889;28;20404;-66
2022/06/26 11:28:27;;;;;;;11.57;10.57;;;27.60;92.70;;;;;;5028885;28;20822;-68
2022/06/26 11:30:53;;;;;;;5.47;4.00;;;27.70;92.40;;;;;;5029325;28;20482;-68
2022/06/26 11:33:26;;;;;;;2.10;1.90;;;27.80;93.00;;;;;;5028909;28;21000;-67
2022/06/26 11:35:53;;;;;;;2.33;2.13;;;27.40;92.70;;;;;;5029734;28;20651;-68
2022/06/26 11:38:20;;;;;;;2.50;2.30;;;27.20;99.90;;;;;;5028773;28;20959;-67
2022/06/26 11:40:47;;;;;;;5.17;2.20;;;27.40;93.50;;;;;;5036352;28;20536;-68
2022/06/26 11:43:15;;;;;;;3.60;2.20;;;27.60;93.90;;;;;;5032961;28;20500;-67
2022/06/26 11:45:43;;;;;;;2.40;1.90;;;27.70;93.60;;;;;;5028480;28;20906;-67
2022/06/26 11:48:16;;;;;;;15.47;2.77;;;27.70;92.90;;;;;;5027408;28;20907;-67
2022/06/26 11:50:49;;;;;;;10.30;2.60;;;27.30;92.00;;;;;;5028937;28;20899;-67
2022/06/26 11:53:39;;;;;;;6.53;2.00;;;27.20;92.40;;;;;;5028965;28;20426;-67
2022/06/26 11:56:05;;;;;;;4.70;3.37;;;27.30;93.30;;;;;;5028527;28;20425;-67
2022/06/26 11:58:34;;;;;;;5.83;2.60;;;27.60;93.70;;;;;;5029588;28;20977;-66
2022/06/26 12:01:08;;;;;;;2.07;1.87;;;27.60;93.80;;;;;;5048630;28;20405;-67
2022/06/26 12:03:55;;;;;;;2.00;1.80;;;27.40;92.70;;;;;;5048237;28;20475;-67
2022/06/26 12:06:41;;;;;;;9.70;2.70;;;27.50;93.00;;;;;;5048893;28;20428;-67
2022/06/26 12:09:23;;;;;;;6.83;2.00;;;27.50;93.70;;;;;;5046762;28;20421;-67
2022/06/26 12:11:51;;;;;;;3.30;2.10;;;27.40;93.50;;;;;;5048272;28;20459;-68
2022/06/26 12:14:19;;;;;;;4.03;2.20;;;27.60;93.90;;;;;;5048125;28;20605;-66
2022/06/26 12:16:51;;;;;;;2.80;2.27;;;27.60;94.10;;;;;;5048359;28;20412;-66
2022/06/26 12:19:18;;;;;;;2.37;2.07;;;27.70;94.60;;;;;;5020899;28;20771;-67
2022/06/26 12:21:52;;;;;;;2.73;2.17;;;27.90;95.20;;;;;;5028727;28;20446;-67
2022/06/26 12:24:19;;;;;;;3.33;2.43;;;28.10;95.60;;;;;;5009813;28;20811;-66
2022/06/26 12:26:46;;;;;;;3.20;2.63;;;28.10;95.60;;;;;;5028440;28;20448;-66
2022/06/26 12:29:17;;;;;;;7.67;2.90;;;28.10;96.80;;;;;;5028040;28;20406;-67
2022/06/26 12:31:43;;;;;;;5.00;2.70;;;28.20;97.10;;;;;;5028948;28;20390;-67
2022/06/26 12:34:10;;;;;;;7.20;2.53;;;28.30;97.80;;;;;;5028205;28;20437;-67
2022/06/26 12:36:37;;;;;;;2.30;2.10;;;28.30;98.20;;;;;;5028695;28;20642;-68
2022/06/26 12:39:04;;;;;;;2.00;1.80;;;28.40;97.80;;;;;;5027832;28;20414;-66
2022/06/26 12:41:29;;;;;;;2.50;2.30;;;28.40;97.40;;;;;;5029497;28;20406;-67
2022/06/26 12:43:57;;;;;;;2.53;1.90;;;28.30;97.40;;;;;;5029123;28;20465;-68
2022/06/26 12:46:25;;;;;;;6.17;2.00;;;28.40;98.40;;;;;;5032499;28;20181;-68
2022/06/26 12:48:51;;;;;;;4.40;2.50;;;28.20;97.30;;;;;;5028386;28;20417;-68
2022/06/26 12:51:17;;;;;;;4.30;2.40;;;28.30;97.90;;;;;;5028373;28;20766;-68
2022/06/26 12:53:43;;;;;;;2.60;1.83;;;28.30;98.40;;;;;;5027931;28;20210;-67
2022/06/26 12:56:11;;;;;;;2.80;1.60;;;28.10;96.30;;;;;;5028289;28;20410;-67
2022/06/26 12:58:37;;;;;;;9.00;2.83;;;27.90;99.90;;;;;;5033982;28;20405;-67
2022/06/26 13:01:05;;;;;;;8.60;3.10;;;27.90;93.00;;;;;;5052059;28;20412;-68
2022/06/26 13:03:31;;;;;;;2.10;1.70;;;28.20;99.90;;;;;;5052332;28;20817;-68
2022/06/26 13:05:56;;;;;;;3.10;1.70;;;28.20;92.90;;;;;;5052200;28;20401;-68
2022/06/26 13:08:22;;;;;;;2.47;2.27;;;28.20;93.80;;;;;;5051684;28;20216;-68
2022/06/26 13:10:48;;;;;;;4.80;2.30;;;28.40;93.50;;;;;;5052034;28;20163;-68
2022/06/26 13:13:14;;;;;;;6.53;1.97;;;28.30;91.90;;;;;;5052040;28;20994;-68
2022/06/26 13:15:39;;;;;;;3.30;1.90;;;28.50;91.00;;;;;;5051596;28;20469;-68
2022/06/26 13:18:06;;;;;;;4.53;2.50;;;28.50;89.00;;;;;;5051016;28;20228;-68
2022/06/26 13:20:33;;;;;;;6.30;2.70;;;28.60;90.70;;;;;;5051694;28;20209;-67
2022/06/26 13:22:59;;;;;;;5.20;1.80;;;28.70;90.10;;;;;;5051984;28;20947;-68
2022/06/26 13:25:25;;;;;;;4.17;2.20;;;28.70;89.40;;;;;;5051230;28;20485;-68
2022/06/26 13:27:51;;;;;;;3.73;1.93;;;28.80;99.90;;;;;;5051316;28;20240;-68
2022/06/26 13:30:17;;;;;;;2.97;1.97;;;28.70;88.90;;;;;;5051241;28;20600;-68
2022/06/26 13:32:42;;;;;;;2.47;1.80;;;28.80;88.90;;;;;;5051575;28;20191;-68
2022/06/26 13:35:09;;;;;;;4.73;2.33;;;28.70;86.80;;;;;;5050543;28;20531;-68
2022/06/26 13:37:35;;;;;;;4.50;1.93;;;28.80;86.10;;;;;;5051245;28;20766;-68
2022/06/26 13:40:02;;;;;;;3.20;2.20;;;28.90;87.80;;;;;;5050267;28;20408;-68
2022/06/26 13:42:28;;;;;;;6.60;2.70;;;28.60;87.80;;;;;;5051038;28;20401;-68
2022/06/26 13:44:54;;;;;;;9.07;2.33;;;28.80;88.20;;;;;;5051282;28;20459;-68
2022/06/26 13:47:20;;;;;;;2.23;1.80;;;29.00;88.30;;;;;;5050779;28;20171;-68
2022/06/26 13:49:47;;;;;;;3.40;2.80;;;29.10;87.80;;;;;;5050087;28;20482;-68
2022/06/26 13:52:13;;;;;;;5.23;2.33;;;29.00;82.80;;;;;;5035022;28;20561;-68
2022/06/26 13:54:40;;;;;;;2.27;1.97;;;29.00;76.00;;;;;;5027917;28;20423;-68
2022/06/26 13:57:06;;;;;;;2.37;1.87;;;29.00;74.70;;;;;;5025744;28;20410;-68
2022/06/26 13:59:32;;;;;;;2.00;1.80;;;29.00;71.40;;;;;;5040538;28;20440;-68
2022/06/26 14:01:58;;;;;;;2.47;2.10;;;28.80;69.20;;;;;;5051281;28;20475;-68
2022/06/26 14:04:24;;;;;;;2.97;1.90;;;29.00;72.50;;;;;;5050346;28;20448;-68
2022/06/26 14:06:49;;;;;;;4.57;2.30;;;29.20;93.60;;;;;;5051110;28;20177;-67
2022/06/26 14:09:15;;;;;;;6.13;2.37;;;29.00;78.00;;;;;;5049517;28;20162;-68
2022/06/26 14:11:41;;;;;;;16.03;3.23;;;29.20;79.20;;;;;;5050490;28;20257;-67
2022/06/26 14:14:06;;;;;;;5.13;2.43;;;29.30;78.60;;;;;;5050685;28;20222;-67
2022/06/26 14:16:32;;;;;;;2.50;2.30;;;29.10;77.20;;;;;;5050439;28;20585;-67
2022/06/26 14:18:58;;;;;;;2.43;2.23;;;29.10;74.90;;;;;;5033242;28;20171;-66
2022/06/26 14:21:24;;;;;;;4.20;2.10;;;29.10;65.70;;;;;;5031087;28;20182;-66